• Join FlightAware (Why Join?)
  • Login
  • US Flag 
06:25AM EDT


 

Airport Tracker/Info


-or-


 

Live Flight TrackerFlight Track Log ✈ AWI3551 ✈ 31-Jul-2013 ✈ KBUF - KPHL

Flight Track Log - Related Links

Times and Time Zones

All times are in EDT time to prevent confusion due to time zone crossing. See the AWI3551 flight status page for this flight to view local times or setup timezone preferences in your user account.

Time Position Orientation Groundspeed Altitude Reporting Facility
EDT Latitude Longitude Course Direction KTS MPH feet Rate Location/Type
05:32AM 42.9333 -78.7500 180° South 160 184 1,600  Level Buffalo TRACON
05:33AM 42.8833 -78.8000 216° Southwest 193 222 3,600 1,500 Climbing Buffalo TRACON
05:34AM 42.8092 -78.8031 182° South 281 323 5,000 1,620 Climbing Cleveland Center
05:35AM 42.6114 -78.6823 172° South  Level FlightAware Approximate
05:35AM 42.7422 -78.7881 171° South 286 329 7,100  Level Cleveland Center
05:36AM 42.5045 -78.6619 173° South  Level FlightAware Approximate
05:36AM 42.6628 -78.7650 168° South 280 322 8,900  Level Cleveland Center
05:37AM 42.3970 -78.6500 180° South  Level FlightAware Approximate
05:37AM 42.5872 -78.7444 169° South 280 322 11,100  Level Cleveland Center
05:38AM 42.4950 -78.7133 166° South 292 336 13,300 2,160 Climbing Cleveland Center
05:39AM 42.4069 -78.6711 161° South 316 364 15,500 1,980 Climbing Cleveland Center
05:40AM 42.3208 -78.6342 162° South 327 376 17,300 1,620 Climbing Cleveland Center
05:41AM 42.2283 -78.5894 160° South 337 388 18,800 1,440 Climbing Cleveland Center
05:42AM 42.1442 -78.5500 161° South 342 394 20,200 1,320 Climbing Cleveland Center
05:43AM 42.0539 -78.5111 162° South 347 399 21,500 1,200 Climbing Cleveland Center
05:44AM 41.9572 -78.4639 160° South 352 405 22,700 720 Climbing Cleveland Center
05:45AM 41.8625 -78.4197 161° South 357 411 23,000 120 Climbing Cleveland Center
05:46AM 41.7636 -78.3756 162° South 363 418 23,000  Level Cleveland Center
05:47AM 41.6628 -78.3289 161° South 376 433 23,000  Level Cleveland Center
05:48AM 41.5639 -78.2853 162° South 376 433 23,000  Level Cleveland Center
05:49AM 41.4939 -78.2550 162° South 379 436 23,000  Level New York Center
05:50AM 41.4150 -78.2186 161° South 379 436 23,000  Level New York Center
05:51AM 41.3056 -78.1678 161° South 379 436 23,000  Level New York Center
05:52AM 41.2083 -78.1239 161° South 373 429 23,000  Level New York Center
05:53AM 41.1089 -78.0803 162° South 373 429 23,000  Level New York Center
05:54AM 41.0094 -78.0336 160° South 373 429 23,000 -240 Level New York Center
05:55AM 40.9125 -77.9850 159° South 373 429 22,600 -720 Descending New York Center
05:56AM 40.8456 -77.8872 132° Southeast 362 417 21,600 -1,020 Descending New York Center
05:57AM 40.7786 -77.7844 131° Southeast 362 417 20,600 -1,020 Descending New York Center
05:58AM 40.7097 -77.6814 131° Southeast 367 422 19,600 -1,020 Descending New York Center
05:59AM 40.6386 -77.5758 132° Southeast 373 429 18,600 -840 Descending New York Center
06:00AM 40.5811 -77.4497 121° Southeast 373 429 18,000 -300 Descending New York Center
06:01AM 40.5478 -77.3372 111° Southeast 368 423 18,000  Level New York Center
06:02AM 40.5094 -77.2025 110° East 362 417 18,000  Level New York Center
06:03AM 40.4781 -77.0878 110° East 362 417 18,000  Level New York Center
06:04AM 40.4408 -76.9644 112° Southeast 362 417 18,000  Level New York Center
06:05AM 40.4003 -76.8217 110° East 377 434 18,000  Level New York Center
06:06AM 40.3594 -76.6819 111° Southeast 395 455 18,000 -60 Level New York Center
06:07AM 40.3183 -76.5422 111° Southeast 402 463 17,900 -840 Descending New York Center
06:08AM 40.2825 -76.4222 111° Southeast 402 463 16,400 -1,740 Descending New York Center
06:09AM 40.2414 -76.2775 110° East 395 455 14,400 -1,740 Descending New York Center
06:10AM 40.2033 -76.1547 112° Southeast 370 426 13,000 -1,560 Descending New York Center
06:11AM 40.1669 -76.0378 112° Southeast 357 411 11,400 -1,500 Descending New York Center
06:12AM 40.1378 -75.9378 111° Southeast 333 383 10,000 -1,380 Descending New York Center
06:13AM 40.1089 -75.8381 111° Southeast 303 349 8,700 -1,380 Descending New York Center
06:14AM 40.0803 -75.7247 108° East 297 342 7,300 -1,260 Descending New York Center
06:15AM 40.0758 -75.6322 94° East 286 329 6,200 -660 Descending New York Center
06:16AM 40.0700 -75.5206 94° East 286 329 6,000 -120 Descending New York Center
06:17AM 40.0653 -75.4278 94° East 286 329 6,000 -180 Level New York Center
06:17AM 40.0667 -75.3667 88° East 285 328 5,800 -1,140 Descending Philadelphia TRACON
06:18AM 40.0333 -75.2667 113° Southeast 273 314 4,300 -1,500 Descending Philadelphia TRACON
06:19AM 40.0000 -75.1833 118° Southeast 257 296 2,900 -1,080 Descending Philadelphia TRACON
06:20AM 39.9500 -75.1333 143° Southeast 193 222 2,100 -960 Descending Philadelphia TRACON
06:21AM 39.9000 -75.1500 194° South 157 181 1,000 -840 Descending Philadelphia TRACON
06:22AM 39.8833 -75.1833 237° Southwest 144 166 500 -540 Descending Philadelphia TRACON